Time;durP1;ratioP1;P1;durP2;ratioP2;P2;SDS_P1;SDS_P2;PMS_P1;PMS_P2;Temp;Humidity;BMP_temperature;BMP_pressure;BME280_temperature;BME280_humidity;BME280_pressure;Samples;Min_cycle;Max_cycle;Signal;HPM_P1;HPM_P2
2021/01/04 00:00:09;;;;;;;0.50;0.50;;;2.50;99.90;;;;;;4936306;29;20208;-87
2021/01/04 00:03:03;;;;;;;0.50;0.50;;;2.50;99.90;;;;;;4933487;29;20286;-87
2021/01/04 00:05:35;;;;;;;0.47;0.47;;;2.50;99.90;;;;;;4932391;29;20204;-87
2021/01/04 00:08:34;;;;;;;0.50;0.50;;;2.50;99.90;;;;;;4929968;29;20701;-87
2021/01/04 00:11:24;;;;;;;0.50;0.50;;;2.50;99.90;;;;;;4929937;29;20208;-88
2021/01/04 00:14:03;;;;;;;0.50;0.50;;;2.60;99.90;;;;;;4887303;29;20259;-88
2021/01/04 00:16:37;;;;;;;0.50;0.50;;;2.60;99.90;;;;;;4930946;29;20207;-88
2021/01/04 00:19:08;;;;;;;0.50;0.50;;;2.50;99.90;;;;;;4931147;29;20454;-88
2021/01/04 00:21:43;;;;;;;0.50;0.50;;;2.60;99.90;;;;;;4928002;29;20782;-88
2021/01/04 00:24:17;;;;;;;0.50;0.50;;;2.60;99.90;;;;;;4931087;29;20734;-88
2021/01/04 00:26:49;;;;;;;0.50;0.50;;;2.60;99.90;;;;;;4930604;29;20208;-87
2021/01/04 00:29:17;;;;;;;0.50;0.50;;;2.70;99.90;;;;;;4930916;29;20208;-88
2021/01/04 00:31:46;;;;;;;0.50;0.50;;;2.70;99.90;;;;;;4930751;29;20204;-88
2021/01/04 00:34:16;;;;;;;0.50;0.50;;;2.70;99.90;;;;;;4931123;29;20581;-88
2021/01/04 00:37:08;;;;;;;0.50;0.50;;;2.70;99.90;;;;;;4930810;29;20280;-84
2021/01/04 00:39:45;;;;;;;0.50;0.50;;;2.70;99.90;;;;;;4930801;29;20212;-85
2021/01/04 00:42:25;;;;;;;0.50;0.50;;;2.70;99.90;;;;;;4930747;29;20227;-85
2021/01/04 00:45:02;;;;;;;0.50;0.50;;;2.70;99.90;;;;;;4930876;29;20208;-85
2021/01/04 00:47:37;;;;;;;0.50;0.50;;;2.80;99.90;;;;;;4930565;29;20742;-86
2021/01/04 00:50:11;;;;;;;0.50;0.50;;;2.70;99.90;;;;;;4930697;29;20294;-85
2021/01/04 00:52:45;;;;;;;0.50;0.50;;;2.70;99.90;;;;;;4930747;29;20208;-84
2021/01/04 00:55:37;;;;;;;0.50;0.50;;;2.70;99.90;;;;;;4930675;29;20244;-85
2021/01/04 00:58:38;;;;;;;0.50;0.50;;;2.70;99.90;;;;;;4930551;29;20212;-88
2021/01/04 01:01:13;;;;;;;0.50;0.50;;;2.80;99.90;;;;;;4930555;29;20260;-86
2021/01/04 01:03:51;;;;;;;0.50;0.50;;;2.70;99.90;;;;;;4930981;29;20200;-87
2021/01/04 01:06:29;;;;;;;0.50;0.50;;;2.90;99.90;;;;;;4930605;29;20214;-85
2021/01/04 01:08:58;;;;;;;0.50;0.50;;;2.80;99.90;;;;;;4930410;29;20667;-86
2021/01/04 01:11:50;;;;;;;0.50;0.50;;;2.90;99.90;;;;;;4930490;29;20207;-88
2021/01/04 01:14:20;;;;;;;0.50;0.50;;;3.00;99.90;;;;;;4930861;29;20215;-86
2021/01/04 01:17:07;;;;;;;0.50;0.50;;;2.90;99.90;;;;;;4930294;29;20679;-86
2021/01/04 01:19:41;;;;;;;0.50;0.50;;;3.00;99.90;;;;;;4930400;29;20212;-87
2021/01/04 01:22:11;;;;;;;0.50;0.50;;;2.90;99.90;;;;;;4930202;29;20275;-86
2021/01/04 01:24:37;;;;;;;0.50;0.50;;;2.90;99.90;;;;;;4930330;29;20413;-86
2021/01/04 01:27:23;;;;;;;0.50;0.50;;;2.90;99.90;;;;;;4930987;29;20219;-86
2021/01/04 01:30:25;;;;;;;0.50;0.50;;;2.90;99.90;;;;;;4933742;29;20209;-87
2021/01/04 01:33:12;;;;;;;0.50;0.50;;;2.90;99.90;;;;;;4886304;29;20212;-92
2021/01/04 01:35:53;;;;;;;0.50;0.50;;;2.90;99.90;;;;;;4933758;29;20735;-88
2021/01/04 01:38:42;;;;;;;0.50;0.50;;;3.00;99.90;;;;;;4933640;29;20208;-88
2021/01/04 01:41:44;;;;;;;0.50;0.50;;;2.90;99.90;;;;;;4933713;29;20499;-87
2021/01/04 01:44:18;;;;;;;0.50;0.50;;;3.00;99.90;;;;;;4877914;29;20591;-88
2021/01/04 01:46:49;;;;;;;0.50;0.50;;;3.00;99.90;;;;;;4933483;29;20588;-87
2021/01/04 01:49:28;;;;;;;0.50;0.50;;;2.90;99.90;;;;;;4933951;29;20208;-88
2021/01/04 01:52:07;;;;;;;0.50;0.50;;;3.00;99.90;;;;;;4933166;29;20235;-87
2021/01/04 01:54:48;;;;;;;0.50;0.50;;;3.00;99.90;;;;;;4933483;29;20216;-88
2021/01/04 01:57:28;;;;;;;0.50;0.50;;;3.00;99.90;;;;;;4933514;29;20465;-89
2021/01/04 02:00:13;;;;;;;0.50;0.50;;;3.00;99.90;;;;;;4933226;29;20617;-89
2021/01/04 02:02:51;;;;;;;0.50;0.50;;;3.00;99.90;;;;;;4933319;29;20694;-86
2021/01/04 02:05:31;;;;;;;0.50;0.50;;;2.90;99.90;;;;;;4933475;29;20215;-89
2021/01/04 02:08:00;;;;;;;0.50;0.50;;;3.00;99.90;;;;;;4933231;29;20211;-89
2021/01/04 02:10:31;;;;;;;0.50;0.50;;;2.90;99.90;;;;;;4933074;29;20200;-87
2021/01/04 02:13:08;;;;;;;0.50;0.50;;;2.90;99.90;;;;;;4933069;29;20272;-88
2021/01/04 02:15:42;;;;;;;0.50;0.50;;;3.00;99.90;;;;;;4933112;29;20204;-88
2021/01/04 02:18:18;;;;;;;0.50;0.50;;;3.00;99.90;;;;;;4932847;29;20272;-87
2021/01/04 02:21:36;;;;;;;0.50;0.50;;;3.00;99.90;;;;;;4933095;29;20228;-88
2021/01/04 02:24:08;;;;;;;0.50;0.50;;;3.00;99.90;;;;;;4837057;29;20570;-88
2021/01/04 02:26:37;;;;;;;0.50;0.50;;;3.00;99.90;;;;;;4837045;29;20215;-89
2021/01/04 02:29:06;;;;;;;0.50;0.50;;;2.90;99.90;;;;;;4883608;29;20235;-89
2021/01/04 02:31:35;;;;;;;0.50;0.50;;;2.90;99.90;;;;;;4932973;29;20213;-90
2021/01/04 02:34:02;;;;;;;0.50;0.50;;;2.90;99.90;;;;;;4932675;29;20213;-89
2021/01/04 02:36:32;;;;;;;0.52;0.52;;;3.00;99.90;;;;;;4932715;29;20637;-88
2021/01/04 02:39:09;;;;;;;0.50;0.50;;;3.00;99.90;;;;;;4932497;29;20676;-88
2021/01/04 02:41:41;;;;;;;0.50;0.50;;;3.00;99.90;;;;;;4932828;29;20731;-88
2021/01/04 02:44:07;;;;;;;0.50;0.50;;;3.00;99.90;;;;;;4932421;29;20695;-88
2021/01/04 02:46:38;;;;;;;0.50;0.50;;;3.00;99.90;;;;;;4932405;29;20598;-88
2021/01/04 02:49:15;;;;;;;0.50;0.50;;;3.00;99.90;;;;;;4932661;29;20576;-89
2021/01/04 02:51:43;;;;;;;0.50;0.50;;;3.00;99.90;;;;;;4932115;29;20719;-88
2021/01/04 02:54:22;;;;;;;0.50;0.50;;;3.00;99.90;;;;;;4932302;29;20208;-89
2021/01/04 02:57:08;;;;;;;0.50;0.50;;;3.00;99.90;;;;;;4932019;29;20671;-87
2021/01/04 02:59:56;;;;;;;0.50;0.50;;;3.00;99.90;;;;;;4932323;29;20236;-88
2021/01/04 03:02:29;;;;;;;0.50;0.50;;;3.00;99.90;;;;;;4932534;29;20233;-88
2021/01/04 03:04:55;;;;;;;0.50;0.50;;;3.00;99.90;;;;;;4932128;29;20216;-87
2021/01/04 03:07:24;;;;;;;0.50;0.50;;;3.00;99.90;;;;;;4932195;29;20208;-88
2021/01/04 03:09:53;;;;;;;0.50;0.50;;;3.00;99.90;;;;;;4932221;29;20498;-87
2021/01/04 03:12:22;;;;;;;0.57;0.57;;;3.00;99.90;;;;;;4932279;29;20208;-88
2021/01/04 03:15:08;;;;;;;0.50;0.50;;;3.10;99.90;;;;;;4931821;29;20208;-87
2021/01/04 03:17:44;;;;;;;0.50;0.50;;;3.10;99.90;;;;;;4931864;29;20208;-87
2021/01/04 03:20:16;;;;;;;0.50;0.50;;;3.10;99.90;;;;;;4931954;29;20208;-88
2021/01/04 03:22:45;;;;;;;0.50;0.50;;;3.10;99.90;;;;;;4931638;29;20231;-87
2021/01/04 03:25:20;;;;;;;0.60;0.60;;;3.10;99.90;;;;;;4931983;29;20197;-88
2021/01/04 03:27:46;;;;;;;0.50;0.50;;;3.10;99.90;;;;;;4931384;29;20208;-87
2021/01/04 03:30:14;;;;;;;0.60;0.60;;;3.00;99.90;;;;;;4931670;29;20217;-88
2021/01/04 03:32:40;;;;;;;0.50;0.50;;;3.10;99.90;;;;;;4931744;29;20210;-88
2021/01/04 03:35:08;;;;;;;0.50;0.50;;;3.10;99.90;;;;;;4931882;29;20230;-87
2021/01/04 03:37:34;;;;;;;0.50;0.50;;;3.10;99.90;;;;;;4931522;29;20212;-87
2021/01/04 03:40:00;;;;;;;0.50;0.50;;;3.10;99.90;;;;;;4931272;29;20216;-88
2021/01/04 03:42:27;;;;;;;0.50;0.50;;;3.10;99.90;;;;;;4931379;29;20279;-87
2021/01/04 03:44:53;;;;;;;0.50;0.50;;;3.10;99.90;;;;;;4931334;29;20713;-87
2021/01/04 03:47:19;;;;;;;0.50;0.50;;;3.10;99.90;;;;;;4931613;29;20680;-87
2021/01/04 03:49:45;;;;;;;0.50;0.50;;;3.20;99.90;;;;;;4930992;29;20215;-88
2021/01/04 03:52:12;;;;;;;0.60;0.60;;;3.20;99.90;;;;;;4931601;29;20240;-88
2021/01/04 03:54:41;;;;;;;0.50;0.50;;;3.20;99.90;;;;;;4931558;29;20216;-89
2021/01/04 03:57:07;;;;;;;0.50;0.50;;;3.10;99.90;;;;;;4931413;29;20209;-88
2021/01/04 03:59:34;;;;;;;0.55;0.55;;;3.20;99.90;;;;;;4931251;29;20216;-87
2021/01/04 04:02:00;;;;;;;0.50;0.50;;;3.10;99.90;;;;;;4930928;29;20604;-88
2021/01/04 04:04:26;;;;;;;0.50;0.50;;;3.10;99.90;;;;;;4931316;29;20212;-87
2021/01/04 04:06:53;;;;;;;0.50;0.50;;;3.00;99.90;;;;;;4931055;29;20235;-88
2021/01/04 04:09:21;;;;;;;0.50;0.50;;;3.00;99.90;;;;;;4931079;29;20208;-88
2021/01/04 04:11:47;;;;;;;0.50;0.50;;;3.00;99.90;;;;;;4931133;29;20715;-88
2021/01/04 04:14:14;;;;;;;0.50;0.50;;;3.00;99.90;;;;;;4931266;29;20212;-88
2021/01/04 04:16:41;;;;;;;0.50;0.50;;;2.90;99.90;;;;;;4931058;29;20542;-88
2021/01/04 04:19:08;;;;;;;0.50;0.50;;;2.90;99.90;;;;;;4931037;29;20204;-88
2021/01/04 04:21:35;;;;;;;0.50;0.50;;;2.90;99.90;;;;;;4930881;29;20323;-88
2021/01/04 04:24:01;;;;;;;0.57;0.57;;;2.90;99.90;;;;;;4931077;29;20421;-88
2021/01/04 04:26:30;;;;;;;0.50;0.50;;;2.90;99.90;;;;;;4931120;29;20464;-88
2021/01/04 04:28:56;;;;;;;0.50;0.50;;;2.90;99.90;;;;;;4930894;29;20311;-88
2021/01/04 04:31:23;;;;;;;0.50;0.50;;;2.90;99.90;;;;;;4930854;29;20208;-88
2021/01/04 04:33:50;;;;;;;0.50;0.50;;;2.90;99.90;;;;;;4931157;29;20577;-87
2021/01/04 04:36:18;;;;;;;0.50;0.50;;;2.90;99.90;;;;;;4931116;29;20288;-86
2021/01/04 04:38:45;;;;;;;0.60;0.60;;;2.90;99.90;;;;;;4931528;29;20212;-89
2021/01/04 05:41:39;;;;;;;0.50;0.50;;;2.90;99.90;;;;;;4708623;30;20232;-90
2021/01/04 05:47:46;;;;;;;0.50;0.50;;;2.70;99.90;;;;;;4770502;29;20220;-87
2021/01/04 05:50:23;;;;;;;0.50;0.50;;;3.00;99.90;;;;;;4787208;29;20475;-87
2021/01/04 05:52:53;;;;;;;0.60;0.60;;;2.80;99.90;;;;;;4856489;29;20230;-86
2021/01/04 05:55:19;;;;;;;0.50;0.50;;;2.90;99.90;;;;;;4909823;29;20325;-87
2021/01/04 05:57:47;;;;;;;0.50;0.50;;;3.00;99.90;;;;;;4914844;29;20205;-87
2021/01/04 06:00:26;;;;;;;0.50;0.50;;;2.50;99.90;;;;;;4914758;29;20213;-87
2021/01/04 06:03:04;;;;;;;0.50;0.50;;;2.90;99.90;;;;;;4914878;29;20215;-86
2021/01/04 06:05:30;;;;;;;0.50;0.50;;;2.90;99.90;;;;;;4914691;29;20216;-86
2021/01/04 06:07:56;;;;;;;0.50;0.50;;;2.90;99.90;;;;;;4914573;29;20209;-86
2021/01/04 06:10:27;;;;;;;0.50;0.50;;;2.90;99.90;;;;;;4914727;29;20217;-86
2021/01/04 06:12:54;;;;;;;0.50;0.50;;;2.90;99.90;;;;;;4914363;29;20236;-86
2021/01/04 06:15:27;;;;;;;0.50;0.50;;;2.80;99.90;;;;;;4914709;29;20751;-87
2021/01/04 06:18:02;;;;;;;0.50;0.50;;;2.90;99.90;;;;;;4914921;29;20217;-86
2021/01/04 06:20:42;;;;;;;0.55;0.55;;;2.90;99.90;;;;;;4914623;29;20205;-86
2021/01/04 06:23:12;;;;;;;0.50;0.50;;;2.90;99.90;;;;;;4914241;29;20233;-87
2021/01/04 06:25:39;;;;;;;0.50;0.50;;;2.90;99.90;;;;;;4914337;29;20209;-88
2021/01/04 06:28:05;;;;;;;0.50;0.50;;;2.90;99.90;;;;;;4914023;29;20208;-87
2021/01/04 06:30:34;;;;;;;0.57;0.57;;;2.90;99.90;;;;;;4914353;29;20292;-87
2021/01/04 06:33:09;;;;;;;0.50;0.50;;;2.90;99.90;;;;;;4914081;29;20204;-87
2021/01/04 06:35:36;;;;;;;0.57;0.57;;;2.90;99.90;;;;;;4914326;29;20911;-87
2021/01/04 06:38:12;;;;;;;0.50;0.50;;;2.90;99.90;;;;;;4914062;29;20217;-88
2021/01/04 06:40:41;;;;;;;0.50;0.50;;;2.90;99.90;;;;;;4913939;29;20209;-88
2021/01/04 06:43:16;;;;;;;0.50;0.50;;;2.90;99.90;;;;;;4914132;29;20205;-88
2021/01/04 06:45:55;;;;;;;0.50;0.50;;;2.90;99.90;;;;;;4914148;29;20208;-88
2021/01/04 06:48:30;;;;;;;0.50;0.50;;;2.90;99.90;;;;;;4913789;29;20663;-88
2021/01/04 06:51:14;;;;;;;0.50;0.50;;;2.90;99.90;;;;;;4914463;29;20215;-89
2021/01/04 06:54:19;;;;;;;0.50;0.50;;;2.90;99.90;;;;;;4913991;29;20945;-88
2021/01/04 06:57:24;;;;;;;0.50;0.50;;;2.80;99.90;;;;;;4902971;29;20246;-89
2021/01/04 07:00:16;;;;;;;0.50;0.50;;;2.80;99.90;;;;;;4913735;29;20213;-88
2021/01/04 07:03:25;;;;;;;0.50;0.50;;;2.90;99.90;;;;;;4911295;29;20515;-90
2021/01/04 07:06:35;;;;;;;0.50;0.50;;;2.80;99.90;;;;;;4913705;29;20212;-89
2021/01/04 07:09:39;;;;;;;0.50;0.50;;;2.70;99.90;;;;;;4913570;29;20217;-87
2021/01/04 07:12:12;;;;;;;0.50;0.50;;;2.80;99.90;;;;;;4913633;29;20216;-90
2021/01/04 07:15:19;;;;;;;0.50;0.50;;;2.80;99.90;;;;;;4914284;29;20209;-90
2021/01/04 07:18:02;;;;;;;0.50;0.50;;;2.70;99.90;;;;;;4906298;29;20283;-88
2021/01/04 07:21:19;;;;;;;0.50;0.50;;;2.70;99.90;;;;;;4918221;29;20208;-92
2021/01/04 07:24:00;;;;;;;0.60;0.60;;;2.70;99.90;;;;;;4855512;29;20294;-89
2021/01/04 07:26:46;;;;;;;0.52;0.52;;;2.60;99.90;;;;;;4904442;29;20217;-90
2021/01/04 07:29:29;;;;;;;0.60;0.60;;;2.60;99.90;;;;;;4913133;29;20237;-88
2021/01/04 07:32:02;;;;;;;0.60;0.60;;;2.60;99.90;;;;;;4913342;29;20264;-88
2021/01/04 07:34:33;;;;;;;0.50;0.50;;;2.60;99.90;;;;;;4913223;29;20208;-87
2021/01/04 07:37:14;;;;;;;0.50;0.50;;;2.60;99.90;;;;;;4913000;29;20297;-86
2021/01/04 07:39:48;;;;;;;0.50;0.50;;;2.60;99.90;;;;;;4913396;29;20284;-87
2021/01/04 07:42:38;;;;;;;0.50;0.50;;;2.60;99.90;;;;;;4913340;29;20236;-86
2021/01/04 07:45:29;;;;;;;0.50;0.50;;;2.50;99.90;;;;;;4913541;29;20219;-88
2021/01/04 07:48:27;;;;;;;0.50;0.50;;;2.50;99.90;;;;;;4905855;29;20220;-88
2021/01/04 07:51:11;;;;;;;0.50;0.50;;;2.50;99.90;;;;;;4913181;29;20220;-87
2021/01/04 07:54:08;;;;;;;0.50;0.50;;;2.50;99.90;;;;;;4912874;29;20208;-86
2021/01/04 07:57:07;;;;;;;0.50;0.50;;;2.50;99.90;;;;;;4913082;29;20217;-86
2021/01/04 08:00:05;;;;;;;0.50;0.50;;;2.50;99.90;;;;;;4913748;29;20209;-87
2021/01/04 08:03:05;;;;;;;0.50;0.50;;;2.50;99.90;;;;;;4912768;29;20221;-88
2021/01/04 08:06:04;;;;;;;0.50;0.50;;;2.50;99.90;;;;;;4912872;29;20572;-87
2021/01/04 08:08:40;;;;;;;0.50;0.50;;;2.40;99.90;;;;;;4912706;29;20720;-87
2021/01/04 08:11:46;;;;;;;0.50;0.50;;;2.40;99.90;;;;;;4912665;29;20260;-87
2021/01/04 08:14:50;;;;;;;0.50;0.50;;;2.40;99.90;;;;;;4912639;29;20216;-89
2021/01/04 08:17:22;;;;;;;0.40;0.40;;;2.40;99.90;;;;;;4913783;29;20587;-90
2021/01/04 08:19:54;;;;;;;0.50;0.50;;;2.40;99.90;;;;;;4913095;29;20212;-88
2021/01/04 08:22:41;;;;;;;0.50;0.50;;;2.40;99.90;;;;;;4912847;29;20246;-90
2021/01/04 08:25:12;;;;;;;0.50;0.50;;;2.40;99.90;;;;;;4900083;29;20209;-89
2021/01/04 08:27:57;;;;;;;0.50;0.50;;;2.40;99.90;;;;;;4912663;29;20217;-90
2021/01/04 08:30:29;;;;;;;0.50;0.50;;;2.40;99.90;;;;;;4913027;29;20373;-92
2021/01/04 08:33:03;;;;;;;0.50;0.50;;;2.40;99.90;;;;;;4914367;29;20492;-91
2021/01/04 08:35:34;;;;;;;0.50;0.50;;;2.30;99.90;;;;;;4910353;29;20212;-88
2021/01/04 08:38:15;;;;;;;0.50;0.50;;;2.40;99.90;;;;;;4916999;29;20209;-87
2021/01/04 08:40:53;;;;;;;0.50;0.50;;;2.40;99.90;;;;;;4917106;29;20239;-89
2021/01/04 08:46:34;;;;;;;0.50;0.50;;;2.40;99.90;;;;;;4899613;29;20223;-86
2021/01/04 08:49:15;;;;;;;0.50;0.50;;;2.40;99.90;;;;;;4915748;29;20205;-83
2021/01/04 08:51:43;;;;;;;0.50;0.50;;;2.40;99.90;;;;;;4915807;29;20208;-85
2021/01/04 09:07:32;;;;;;;0.50;0.50;;;2.40;99.90;;;;;;4917721;29;20675;-86
2021/01/04 09:34:16;;;;;;;0.40;0.40;;;2.50;99.90;;;;;;5316460;23;20244;-86
2021/01/04 09:36:43;;;;;;;0.50;0.50;;;2.60;99.90;;;;;;4915235;29;20591;-86
2021/01/04 09:39:12;;;;;;;0.50;0.50;;;2.50;99.90;;;;;;4915311;29;20228;-87
2021/01/04 09:41:39;;;;;;;0.50;0.50;;;2.60;99.90;;;;;;4915026;29;20240;-87
2021/01/04 09:44:07;;;;;;;0.50;0.50;;;2.60;99.90;;;;;;4915209;29;20209;-87
2021/01/04 09:46:43;;;;;;;0.50;0.50;;;2.60;99.90;;;;;;4914846;29;20213;-87
2021/01/04 09:49:15;;;;;;;0.50;0.50;;;2.60;99.90;;;;;;4915060;29;20208;-87
2021/01/04 09:51:44;;;;;;;0.50;0.50;;;2.60;99.90;;;;;;4915131;29;20201;-87
2021/01/04 09:54:15;;;;;;;0.50;0.50;;;2.60;99.90;;;;;;4914869;29;20210;-86
2021/01/04 09:56:41;;;;;;;0.47;0.47;;;2.60;99.90;;;;;;4914993;29;20209;-87
2021/01/04 09:59:10;;;;;;;0.50;0.50;;;2.60;99.90;;;;;;4914793;29;20209;-87
2021/01/04 10:01:47;;;;;;;0.50;0.50;;;2.60;99.90;;;;;;4914579;29;20233;-87
2021/01/04 10:04:22;;;;;;;0.50;0.50;;;2.60;99.90;;;;;;4912997;29;20215;-86
2021/01/04 10:06:49;;;;;;;0.50;0.50;;;2.60;99.90;;;;;;4911867;29;20229;-87
2021/01/04 10:09:18;;;;;;;0.50;0.50;;;2.60;99.90;;;;;;4913960;29;20675;-87
2021/01/04 10:11:47;;;;;;;0.50;0.50;;;2.60;99.90;;;;;;4913964;29;20304;-87
2021/01/04 10:14:15;;;;;;;0.50;0.50;;;2.60;99.90;;;;;;4913799;29;20205;-85
2021/01/04 10:16:45;;;;;;;0.50;0.50;;;2.60;99.90;;;;;;4913872;29;20205;-86
2021/01/04 10:19:17;;;;;;;0.50;0.50;;;2.60;99.90;;;;;;4913511;29;20692;-87
2021/01/04 10:21:54;;;;;;;0.50;0.50;;;2.60;99.90;;;;;;4913657;29;20236;-86
2021/01/04 10:24:24;;;;;;;0.50;0.50;;;2.60;99.90;;;;;;4913434;29;20228;-87
2021/01/04 10:26:52;;;;;;;0.50;0.50;;;2.60;99.90;;;;;;4914364;29;20464;-86
2021/01/04 10:29:22;;;;;;;0.50;0.50;;;2.60;99.90;;;;;;4914183;29;20656;-87
2021/01/04 10:31:51;;;;;;;0.50;0.50;;;2.60;99.90;;;;;;4913738;29;20205;-87
2021/01/04 10:34:20;;;;;;;0.50;0.50;;;2.70;99.90;;;;;;4913541;29;20229;-87
2021/01/04 10:36:57;;;;;;;0.50;0.50;;;2.70;99.90;;;;;;4912575;29;20208;-87
2021/01/04 10:39:30;;;;;;;0.50;0.50;;;2.70;99.90;;;;;;4911773;29;20677;-87
2021/01/04 10:42:05;;;;;;;0.50;0.50;;;2.70;99.90;;;;;;4913138;29;20722;-88
2021/01/04 10:44:33;;;;;;;0.50;0.50;;;2.70;99.90;;;;;;4916087;29;20213;-92
2021/01/04 10:47:03;;;;;;;0.50;0.50;;;2.90;99.90;;;;;;4916283;29;20213;-91
2021/01/04 10:49:32;;;;;;;0.50;0.50;;;2.90;99.90;;;;;;4914608;29;20213;-90
2021/01/04 10:52:05;;;;;;;0.50;0.50;;;2.90;99.90;;;;;;4916134;29;20213;-92
2021/01/04 10:54:37;;;;;;;0.50;0.50;;;3.50;99.90;;;;;;4913946;29;20735;-89
2021/01/04 10:57:13;;;;;;;0.50;0.50;;;3.00;99.90;;;;;;4913815;29;20209;-90
2021/01/04 10:59:43;;;;;;;0.50;0.50;;;3.00;99.90;;;;;;4912730;29;20209;-90
2021/01/04 11:02:10;;;;;;;0.50;0.50;;;2.90;99.90;;;;;;4907152;29;20306;-89
2021/01/04 11:04:38;;;;;;;0.50;0.50;;;2.90;99.90;;;;;;4870715;29;20299;-90
2021/01/04 11:07:15;;;;;;;0.50;0.50;;;2.90;99.90;;;;;;4910906;29;20217;-90
2021/01/04 11:09:43;;;;;;;0.50;0.50;;;3.00;99.90;;;;;;4912680;29;20830;-93
2021/01/04 11:12:13;;;;;;;0.50;0.50;;;3.00;99.90;;;;;;4911664;29;20209;-89
2021/01/04 11:14:52;;;;;;;0.50;0.50;;;3.00;99.90;;;;;;4911769;29;20296;-88
2021/01/04 11:17:20;;;;;;;0.50;0.50;;;3.00;99.90;;;;;;4912047;29;20213;-88
2021/01/04 11:19:47;;;;;;;0.50;0.50;;;3.00;99.90;;;;;;4914512;29;20208;-85
2021/01/04 11:22:21;;;;;;;0.50;0.50;;;3.00;99.90;;;;;;4926395;29;20345;-86
2021/01/04 11:24:48;;;;;;;0.50;0.50;;;2.90;99.90;;;;;;4901094;29;20209;-88
2021/01/04 11:27:15;;;;;;;0.50;0.50;;;2.90;99.90;;;;;;4912955;29;20205;-87
2021/01/04 11:29:42;;;;;;;0.50;0.50;;;3.00;99.90;;;;;;4912212;29;20232;-88
2021/01/04 11:32:10;;;;;;;0.50;0.50;;;2.90;99.90;;;;;;4912008;29;20629;-86
2021/01/04 11:34:36;;;;;;;0.50;0.50;;;2.80;99.90;;;;;;4919314;29;20232;-86
2021/01/04 11:37:03;;;;;;;0.50;0.50;;;2.90;99.90;;;;;;4920862;29;20205;-87
2021/01/04 11:39:30;;;;;;;0.50;0.50;;;2.80;99.90;;;;;;4912306;29;20213;-86
2021/01/04 11:41:56;;;;;;;0.50;0.50;;;2.80;99.90;;;;;;4911951;29;20236;-86
2021/01/04 11:44:22;;;;;;;0.50;0.50;;;2.80;99.90;;;;;;4919255;29;20243;-85
2021/01/04 11:46:48;;;;;;;0.50;0.50;;;2.80;99.90;;;;;;4928022;29;20227;-86
2021/01/04 11:49:14;;;;;;;0.50;0.50;;;2.80;99.90;;;;;;4923779;29;20743;-86
2021/01/04 11:51:40;;;;;;;0.50;0.50;;;2.80;99.90;;;;;;4927400;29;20808;-86
2021/01/04 11:54:06;;;;;;;0.50;0.50;;;2.70;99.90;;;;;;4912322;29;20239;-85
2021/01/04 11:56:33;;;;;;;0.50;0.50;;;2.70;99.90;;;;;;4911058;29;20213;-85
2021/01/04 11:59:00;;;;;;;0.50;0.50;;;2.60;99.90;;;;;;4910073;29;20743;-86
2021/01/04 12:01:26;;;;;;;0.50;0.50;;;2.70;99.90;;;;;;4912248;29;20260;-85
2021/01/04 12:03:54;;;;;;;0.50;0.50;;;2.60;99.90;;;;;;4910821;29;20676;-86
2021/01/04 12:06:21;;;;;;;0.50;0.50;;;2.60;99.90;;;;;;4911528;29;20242;-85
2021/01/04 12:08:47;;;;;;;0.50;0.50;;;2.40;99.90;;;;;;4909862;29;20216;-85
2021/01/04 12:11:13;;;;;;;0.50;0.50;;;2.60;99.90;;;;;;4911204;29;20213;-85
2021/01/04 12:13:42;;;;;;;0.50;0.50;;;2.50;99.90;;;;;;4909269;29;20209;-84
2021/01/04 12:16:09;;;;;;;0.50;0.50;;;2.60;99.90;;;;;;4911817;29;20327;-85
2021/01/04 12:18:35;;;;;;;0.50;0.50;;;2.50;99.90;;;;;;4910961;29;20631;-85
2021/01/04 12:21:01;;;;;;;0.50;0.50;;;2.60;99.90;;;;;;4911621;29;20260;-85
2021/01/04 12:23:28;;;;;;;0.50;0.50;;;2.60;99.90;;;;;;4908440;29;20233;-87
2021/01/04 12:25:54;;;;;;;0.50;0.50;;;2.60;99.90;;;;;;4910239;29;20700;-86
2021/01/04 12:28:20;;;;;;;0.50;0.50;;;2.50;99.90;;;;;;4911198;29;20208;-86
2021/01/04 12:30:47;;;;;;;0.50;0.50;;;2.60;99.90;;;;;;4908724;29;20209;-85
2021/01/04 12:33:13;;;;;;;0.50;0.50;;;2.50;99.90;;;;;;4908617;29;20241;-86
2021/01/04 12:35:39;;;;;;;0.50;0.50;;;2.50;99.90;;;;;;4909003;29;20213;-87
2021/01/04 12:38:06;;;;;;;0.50;0.50;;;2.50;99.90;;;;;;4909902;29;20310;-86
2021/01/04 12:40:34;;;;;;;0.50;0.50;;;2.50;99.90;;;;;;4909658;29;20201;-86
2021/01/04 12:43:09;;;;;;;0.50;0.50;;;2.50;99.90;;;;;;4907806;29;20224;-85
2021/01/04 12:45:38;;;;;;;0.50;0.50;;;2.40;99.90;;;;;;4907797;29;20215;-86
2021/01/04 12:48:06;;;;;;;0.50;0.50;;;2.40;99.90;;;;;;4905863;29;20236;-86
2021/01/04 12:50:35;;;;;;;0.50;0.50;;;2.40;99.90;;;;;;4910859;29;20209;-86
2021/01/04 12:53:10;;;;;;;0.50;0.50;;;2.50;99.90;;;;;;4911394;29;20204;-86
2021/01/04 12:55:50;;;;;;;0.50;0.50;;;2.50;99.90;;;;;;4907909;29;20208;-85
2021/01/04 12:58:20;;;;;;;0.50;0.50;;;2.40;99.90;;;;;;4910085;29;20240;-86
2021/01/04 13:00:49;;;;;;;0.50;0.50;;;;;;;;;;4906761;29;20341;-86
2021/01/04 13:03:22;;;;;;;0.50;0.50;;;2.40;99.90;;;;;;4910692;29;20225;-86
2021/01/04 13:05:48;;;;;;;0.50;0.50;;;2.40;99.90;;;;;;4907531;29;20205;-87
2021/01/04 13:08:15;;;;;;;0.50;0.50;;;2.40;99.90;;;;;;4911757;29;20213;-88
2021/01/04 13:10:41;;;;;;;0.50;0.50;;;2.40;99.90;;;;;;4911626;29;20264;-88
2021/01/04 13:13:07;;;;;;;0.40;0.40;;;2.40;99.90;;;;;;4911714;29;20205;-86
2021/01/04 13:15:33;;;;;;;0.50;0.50;;;2.40;99.90;;;;;;4911774;29;20209;-87
2021/01/04 13:18:00;;;;;;;0.50;0.50;;;2.40;99.90;;;;;;4911220;29;20213;-87
2021/01/04 13:20:27;;;;;;;0.50;0.50;;;2.30;99.90;;;;;;4911862;29;20209;-88
2021/01/04 13:22:53;;;;;;;0.50;0.50;;;2.40;99.90;;;;;;4911301;29;20618;-87
2021/01/04 13:25:19;;;;;;;0.50;0.50;;;2.40;99.90;;;;;;4915501;29;20213;-87
2021/01/04 13:27:46;;;;;;;0.50;0.50;;;2.40;99.90;;;;;;4915138;29;20676;-85
2021/01/04 13:30:16;;;;;;;0.50;0.50;;;2.40;99.90;;;;;;4899884;29;20209;-87
2021/01/04 13:32:42;;;;;;;0.50;0.50;;;2.40;99.90;;;;;;4915252;29;20212;-86
2021/01/04 13:35:09;;;;;;;0.50;0.50;;;2.40;99.90;;;;;;4896172;29;20238;-88
2021/01/04 13:37:36;;;;;;;0.50;0.50;;;2.40;99.90;;;;;;4896291;29;20245;-88
2021/01/04 13:40:02;;;;;;;0.50;0.50;;;2.40;99.90;;;;;;4896110;29;20206;-87
2021/01/04 13:42:33;;;;;;;0.50;0.50;;;2.40;99.90;;;;;;4894111;29;20715;-85
2021/01/04 13:44:59;;;;;;;0.50;0.50;;;2.40;99.90;;;;;;4894531;29;20709;-84
2021/01/04 13:47:27;;;;;;;0.50;0.50;;;2.40;99.90;;;;;;4895593;29;20567;-86
2021/01/04 13:49:56;;;;;;;0.50;0.50;;;2.40;99.90;;;;;;4895616;29;20217;-89
2021/01/04 13:52:23;;;;;;;0.50;0.50;;;2.40;99.90;;;;;;4896770;29;20253;-87
2021/01/04 13:54:50;;;;;;;0.50;0.50;;;2.40;99.90;;;;;;4894147;29;20246;-90
2021/01/04 13:59:58;;;;;;;0.50;0.50;;;2.40;99.90;;;;;;4891797;29;20218;-93
2021/01/04 14:02:24;;;;;;;0.47;0.47;;;2.40;99.90;;;;;;4894260;29;20258;-91
2021/01/04 14:04:50;;;;;;;0.50;0.50;;;2.40;99.90;;;;;;4894064;29;20242;-93
2021/01/04 14:07:18;;;;;;;0.50;0.50;;;2.40;99.90;;;;;;4896430;29;20304;-91
2021/01/04 14:09:55;;;;;;;0.45;0.45;;;2.40;99.90;;;;;;4896219;29;20209;-92
2021/01/04 14:12:22;;;;;;;0.50;0.50;;;2.40;99.90;;;;;;4894205;29;20224;-93
2021/01/04 14:14:52;;;;;;;0.50;0.50;;;2.40;99.90;;;;;;4904316;29;20209;-95
2021/01/04 16:07:03;;;;;;;0.40;0.40;;;1.60;99.90;;;;;;5284463;23;20649;-92
2021/01/04 16:09:31;;;;;;;0.50;0.50;;;1.10;99.90;;;;;;4890123;29;20289;-88
2021/01/04 16:11:59;;;;;;;0.40;0.40;;;1.60;99.90;;;;;;4895928;29;20446;-88
2021/01/04 16:21:42;;;;;;;0.40;0.40;;;1.40;99.90;;;;;;4831764;29;20258;-89
2021/01/04 16:31:57;;;;;;;0.50;0.50;;;2.80;99.90;;;;;;4977359;23;20794;-88
2021/01/04 16:34:28;;;;;;;0.50;0.50;;;0.80;99.90;;;;;;4874674;29;20319;-90
2021/01/04 16:36:59;;;;;;;0.50;0.50;;;1.30;99.90;;;;;;4874562;29;20214;-88
2021/01/04 16:39:44;;;;;;;0.50;0.50;;;0.90;99.90;;;;;;4875288;29;20214;-89
2021/01/04 16:43:09;;;;;;;0.50;0.50;;;1.40;99.90;;;;;;4876651;29;20252;-91
2021/01/04 16:45:42;;;;;;;0.50;0.50;;;0.70;99.90;;;;;;4874752;29;20270;-90
2021/01/04 17:02:03;;;;;;;;;;;;;;;;;;;;;
2021/01/04 17:14:01;;;;;;;0.50;0.50;;;2.70;99.90;;;;;;4807282;29;20694;-88
2021/01/04 17:16:30;;;;;;;0.50;0.50;;;0.90;99.90;;;;;;4855453;29;20216;-89
2021/01/04 17:19:00;;;;;;;0.50;0.50;;;0.80;99.90;;;;;;4887046;29;20210;-89
2021/01/04 18:13:16;;;;;;;0.40;0.40;;;1.30;99.90;;;;;;4685876;30;20693;-91
2021/01/04 18:16:27;;;;;;;;;;;;;;;;;;;;;
2021/01/04 19:01:23;;;;;;;0.50;0.50;;;1.70;99.90;;;;;;4850141;29;20230;-91
2021/01/04 19:10:32;;;;;;;0.50;0.50;;;2.50;99.90;;;;;;4827679;29;20735;-88
2021/01/04 19:20:55;;;;;;;0.50;0.50;;;1.50;99.90;;;;;;4932468;23;20237;-86
2021/01/04 19:23:30;;;;;;;0.50;0.50;;;1.30;99.90;;;;;;4889429;29;20260;-90
2021/01/04 19:25:57;;;;;;;0.50;0.50;;;2.90;99.90;;;;;;4874483;29;20224;-88
2021/01/04 19:28:23;;;;;;;0.50;0.50;;;1.50;99.90;;;;;;4875994;29;20266;-87
2021/01/04 19:30:55;;;;;;;0.50;0.50;;;0.90;99.90;;;;;;4884158;29;20221;-88
2021/01/04 19:33:51;;;;;;;0.40;0.40;;;1.60;99.90;;;;;;4886229;29;20206;-90
2021/01/04 19:36:26;;;;;;;0.50;0.50;;;1.60;99.90;;;;;;4880402;29;20578;-89
2021/01/04 19:38:56;;;;;;;0.50;0.50;;;3.10;99.90;;;;;;4874855;29;20883;-90